Time;durP1;ratioP1;P1;durP2;ratioP2;P2;SDS_P1;SDS_P2;PMS_P1;PMS_P2;Temp;Humidity;BMP_temperature;BMP_pressure;BME280_temperature;BME280_humidity;BME280_pressure;Samples;Min_cycle;Max_cycle;Signal;HPM_P1;HPM_P2
2023/07/16 00:00:41;;;;;;;2.28;1.75;;;;;;;;;;5080131;28;20214;-69
2023/07/16 00:03:09;;;;;;;2.85;1.90;;;;;;;;;;5080005;28;20210;-71
2023/07/16 00:05:38;;;;;;;2.28;1.90;;;;;;;;;;5077907;28;20206;-70
2023/07/16 00:08:05;;;;;;;3.53;1.98;;;;;;;;;;5075111;28;20203;-70
2023/07/16 00:10:36;;;;;;;2.53;1.77;;;;;;;;;;5074502;28;20226;-71
2023/07/16 00:13:03;;;;;;;3.35;2.10;;;;;;;;;;5075267;28;20203;-72
2023/07/16 00:15:31;;;;;;;4.25;2.15;;;;;;;;;;5076318;28;20230;-69
2023/07/16 00:17:58;;;;;;;2.67;2.00;;;;;;;;;;5079286;28;20210;-71
2023/07/16 00:20:25;;;;;;;2.63;1.65;;;;;;;;;;5068314;28;20290;-71
2023/07/16 00:22:52;;;;;;;2.88;1.80;;;;;;;;;;5080968;28;20216;-71
2023/07/16 00:25:20;;;;;;;4.10;2.28;;;;;;;;;;5079287;28;20217;-71
2023/07/16 00:27:48;;;;;;;2.88;1.95;;;;;;;;;;5078247;28;20209;-71
2023/07/16 00:30:15;;;;;;;4.03;1.75;;;;;;;;;;5076924;28;20202;-70
2023/07/16 00:32:43;;;;;;;4.45;2.00;;;;;;;;;;5076055;28;20198;-71
2023/07/16 00:35:10;;;;;;;5.88;2.28;;;;;;;;;;5080063;28;20202;-72
2023/07/16 00:37:38;;;;;;;4.35;2.13;;;;;;;;;;5079375;28;20206;-72
2023/07/16 00:40:05;;;;;;;3.17;1.70;;;;;;;;;;5070430;28;20244;-72
2023/07/16 00:42:32;;;;;;;2.72;1.80;;;;;;;;;;5082680;28;20209;-72
2023/07/16 00:45:01;;;;;;;3.03;1.83;;;;;;;;;;5075704;28;20207;-71
2023/07/16 00:47:28;;;;;;;3.00;1.80;;;;;;;;;;5078893;28;20206;-72
2023/07/16 00:49:55;;;;;;;5.38;2.33;;;;;;;;;;5081343;28;20221;-72
2023/07/16 00:52:23;;;;;;;3.72;2.00;;;;;;;;;;5079060;28;20205;-71
2023/07/16 00:54:50;;;;;;;2.90;1.83;;;;;;;;;;5078479;28;20214;-72
2023/07/16 00:57:17;;;;;;;3.33;2.00;;;;;;;;;;5077992;28;20202;-70
2023/07/16 00:59:44;;;;;;;4.55;1.80;;;;;;;;;;5074637;28;20213;-71
2023/07/16 01:02:13;;;;;;;5.30;1.98;;;;;;;;;;5073767;28;20219;-69
2023/07/16 01:04:40;;;;;;;4.18;1.98;;;;;;;;;;5080083;28;20213;-68
2023/07/16 01:07:09;;;;;;;2.65;1.90;;;;;;;;;;5077872;28;20228;-67
2023/07/16 01:09:38;;;;;;;5.45;1.98;;;;;;;;;;5083383;28;20234;-70
2023/07/16 01:12:06;;;;;;;3.75;1.90;;;;;;;;;;5076193;28;20202;-70
2023/07/16 01:14:34;;;;;;;5.30;1.70;;;;;;;;;;5074460;28;20202;-68
2023/07/16 01:17:04;;;;;;;3.45;1.55;;;;;;;;;;5075124;28;20289;-69
2023/07/16 01:19:32;;;;;;;2.38;1.70;;;;;;;;;;5072642;28;20210;-67
2023/07/16 01:22:04;;;;;;;5.07;2.30;;;;;;;;;;5076394;28;20233;-70
2023/07/16 01:24:46;;;;;;;5.40;1.90;;;;;;;;;;5081383;28;20205;-69
2023/07/16 01:27:21;;;;;;;5.55;1.95;;;;;;;;;;5071613;28;20256;-69
2023/07/16 01:29:51;;;;;;;3.45;2.15;;;;;;;;;;5080458;28;20198;-73
2023/07/16 01:32:18;;;;;;;6.68;2.60;;;;;;;;;;5078184;28;20203;-70
2023/07/16 01:34:46;;;;;;;3.55;2.10;;;;;;;;;;5078143;28;20203;-68
2023/07/16 01:37:13;;;;;;;3.70;2.03;;;;;;;;;;5070116;28;20203;-69
2023/07/16 01:39:40;;;;;;;3.28;1.95;;;;;;;;;;5077645;28;20293;-70
2023/07/16 01:42:08;;;;;;;4.88;1.80;;;;;;;;;;5071296;28;20219;-68
2023/07/16 01:44:35;;;;;;;4.03;2.00;;;;;;;;;;5080463;28;20203;-69
2023/07/16 01:47:10;;;;;;;2.75;1.83;;;;;;;;;;5078223;28;20206;-69
2023/07/16 01:49:37;;;;;;;5.00;2.28;;;;;;;;;;5070673;28;20213;-67
2023/07/16 01:52:04;;;;;;;7.72;2.10;;;;;;;;;;5075273;28;20202;-67
2023/07/16 01:54:31;;;;;;;4.60;2.20;;;;;;;;;;5074670;28;20214;-69
2023/07/16 01:56:59;;;;;;;2.83;1.98;;;;;;;;;;5072146;28;20206;-70
2023/07/16 01:59:26;;;;;;;3.90;2.10;;;;;;;;;;5079715;28;20211;-68
2023/07/16 02:01:53;;;;;;;4.70;2.08;;;;;;;;;;5077490;28;20221;-69
2023/07/16 02:04:22;;;;;;;2.75;1.90;;;;;;;;;;5075867;28;20214;-67
2023/07/16 02:06:49;;;;;;;4.78;2.00;;;;;;;;;;5076698;28;20195;-70
2023/07/16 02:09:16;;;;;;;8.05;2.15;;;;;;;;;;5077341;28;20227;-70
2023/07/16 02:11:43;;;;;;;6.20;2.00;;;;;;;;;;5079009;28;20203;-70
2023/07/16 02:14:11;;;;;;;4.28;1.80;;;;;;;;;;5076107;28;20202;-70
2023/07/16 02:16:38;;;;;;;5.10;1.90;;;;;;;;;;5076581;28;20201;-70
2023/07/16 02:19:05;;;;;;;6.60;2.10;;;;;;;;;;5074992;28;20206;-70
2023/07/16 02:21:34;;;;;;;5.03;1.95;;;;;;;;;;5076925;28;20229;-68
2023/07/16 02:24:01;;;;;;;4.43;2.08;;;;;;;;;;5078852;28;20198;-70
2023/07/16 02:26:28;;;;;;;4.18;2.20;;;;;;;;;;5070298;28;20226;-70
2023/07/16 02:28:55;;;;;;;4.32;1.85;;;;;;;;;;5076388;28;20205;-70
2023/07/16 02:31:22;;;;;;;5.30;1.98;;;;;;;;;;5074058;28;20249;-68
2023/07/16 02:33:49;;;;;;;4.30;1.92;;;;;;;;;;5072827;28;20216;-68
2023/07/16 02:36:17;;;;;;;3.90;2.00;;;;;;;;;;5072304;28;20209;-67
2023/07/16 02:38:45;;;;;;;3.83;1.83;;;;;;;;;;5072812;28;20203;-68
2023/07/16 02:41:12;;;;;;;2.55;1.88;;;;;;;;;;5072290;28;20222;-70
2023/07/16 02:43:40;;;;;;;5.13;1.95;;;;;;;;;;5074185;28;20203;-68
2023/07/16 02:46:07;;;;;;;4.10;2.38;;;;;;;;;;5069003;28;20210;-70
2023/07/16 02:48:34;;;;;;;5.97;1.92;;;;;;;;;;5079968;28;20206;-68
2023/07/16 02:51:01;;;;;;;6.57;2.00;;;;;;;;;;5078726;28;20214;-67
2023/07/16 02:53:28;;;;;;;3.03;1.83;;;;;;;;;;5076217;28;20207;-68
2023/07/16 02:55:57;;;;;;;6.00;2.00;;;;;;;;;;5074727;28;20202;-69
2023/07/16 02:58:24;;;;;;;5.05;2.00;;;;;;;;;;5072087;28;20210;-67
2023/07/16 03:00:51;;;;;;;5.32;1.80;;;;;;;;;;5077060;28;20226;-68
2023/07/16 03:03:18;;;;;;;3.42;2.00;;;;;;;;;;5074042;28;20213;-69
2023/07/16 03:05:46;;;;;;;5.05;2.00;;;;;;;;;;5078078;28;20210;-67
2023/07/16 03:08:13;;;;;;;3.60;1.77;;;;;;;;;;5077465;28;20289;-67
2023/07/16 03:10:40;;;;;;;4.57;2.03;;;;;;;;;;5080513;28;20252;-69
2023/07/16 03:13:08;;;;;;;7.32;2.05;;;;;;;;;;5071438;28;20209;-68
2023/07/16 03:15:51;;;;;;;6.80;2.10;;;;;;;;;;5068070;28;20611;-71
2023/07/16 03:18:19;;;;;;;5.22;2.20;;;;;;;;;;5040269;28;20302;-68
2023/07/16 03:20:46;;;;;;;6.18;2.17;;;;;;;;;;5037033;28;20215;-71
2023/07/16 03:23:13;;;;;;;5.03;1.90;;;;;;;;;;5041777;28;20195;-68
2023/07/16 03:25:40;;;;;;;6.38;2.03;;;;;;;;;;5040310;28;20202;-71
2023/07/16 03:28:08;;;;;;;5.78;2.03;;;;;;;;;;5044093;28;20225;-67
2023/07/16 03:30:35;;;;;;;4.10;1.85;;;;;;;;;;5036349;28;20215;-71
2023/07/16 03:33:03;;;;;;;4.57;2.13;;;;;;;;;;5039813;28;20210;-69
2023/07/16 03:35:30;;;;;;;3.60;2.15;;;;;;;;;;5042619;28;20320;-68
2023/07/16 03:37:58;;;;;;;9.45;2.45;;;;;;;;;;5039654;28;20209;-70
2023/07/16 03:40:26;;;;;;;5.80;2.20;;;;;;;;;;5041879;28;20295;-71
2023/07/16 03:42:53;;;;;;;6.28;1.90;;;;;;;;;;5038538;28;20210;-72
2023/07/16 03:45:21;;;;;;;6.72;2.30;;;;;;;;;;5034500;28;20219;-69
2023/07/16 03:47:48;;;;;;;4.68;2.28;;;;;;;;;;5042398;28;20206;-72
2023/07/16 03:50:16;;;;;;;3.78;1.83;;;;;;;;;;5039502;28;20207;-70
2023/07/16 03:52:45;;;;;;;4.22;2.00;;;;;;;;;;5040400;28;20212;-72
2023/07/16 03:55:12;;;;;;;4.88;2.25;;;;;;;;;;5035305;28;20219;-71
2023/07/16 03:57:39;;;;;;;6.85;2.17;;;;;;;;;;5038333;28;20255;-69
2023/07/16 04:00:10;;;;;;;4.32;2.10;;;;;;;;;;5033488;28;20199;-69
2023/07/16 04:02:37;;;;;;;5.75;2.20;;;;;;;;;;5036513;28;20212;-69
2023/07/16 04:05:04;;;;;;;5.70;2.22;;;;;;;;;;5037506;28;20211;-72
2023/07/16 04:07:33;;;;;;;6.43;2.75;;;;;;;;;;5035026;28;20204;-69
2023/07/16 04:10:00;;;;;;;5.38;2.00;;;;;;;;;;5037731;28;20196;-69
2023/07/16 04:12:27;;;;;;;6.18;2.28;;;;;;;;;;5038082;28;20199;-69
2023/07/16 04:14:57;;;;;;;4.68;2.35;;;;;;;;;;5045661;28;20243;-71
2023/07/16 04:17:24;;;;;;;6.18;2.30;;;;;;;;;;5040526;28;20200;-72
2023/07/16 04:19:51;;;;;;;6.18;2.65;;;;;;;;;;5043786;28;20213;-71
2023/07/16 04:22:19;;;;;;;5.93;2.38;;;;;;;;;;5041107;28;20203;-69
2023/07/16 04:24:47;;;;;;;6.88;2.60;;;;;;;;;;5042630;28;20204;-70
2023/07/16 04:27:14;;;;;;;6.28;2.35;;;;;;;;;;5024845;28;20203;-71
2023/07/16 04:29:42;;;;;;;4.88;2.20;;;;;;;;;;5028226;28;20204;-71
2023/07/16 04:32:09;;;;;;;6.32;2.60;;;;;;;;;;5027003;28;20200;-69
2023/07/16 04:34:36;;;;;;;6.35;2.60;;;;;;;;;;5024850;28;20243;-71
2023/07/16 04:37:03;;;;;;;6.65;2.45;;;;;;;;;;5025779;28;20217;-68
2023/07/16 04:39:30;;;;;;;6.30;2.55;;;;;;;;;;5020784;28;20204;-70
2023/07/16 04:41:59;;;;;;;7.53;2.30;;;;;;;;;;5023124;28;20215;-70
2023/07/16 04:44:26;;;;;;;5.30;2.50;;;;;;;;;;5026295;28;20200;-70
2023/07/16 04:46:53;;;;;;;6.38;2.42;;;;;;;;;;5023331;28;20204;-70
2023/07/16 04:49:21;;;;;;;7.00;2.40;;;;;;;;;;5025008;28;20200;-69
2023/07/16 04:51:48;;;;;;;5.88;2.60;;;;;;;;;;5026546;28;20205;-70
2023/07/16 04:54:15;;;;;;;10.02;2.83;;;;;;;;;;5026210;28;20232;-71
2023/07/16 04:56:42;;;;;;;5.32;2.88;;;;;;;;;;5026586;28;20259;-68
2023/07/16 04:59:11;;;;;;;7.30;2.30;;;;;;;;;;5024306;28;20202;-68
2023/07/16 05:01:38;;;;;;;6.88;2.28;;;;;;;;;;5025289;28;20204;-67
2023/07/16 05:04:05;;;;;;;5.43;2.35;;;;;;;;;;5022735;28;20208;-68
2023/07/16 05:06:32;;;;;;;4.82;2.40;;;;;;;;;;5025368;28;20284;-69
2023/07/16 05:08:59;;;;;;;5.60;2.40;;;;;;;;;;5020849;28;20212;-67
2023/07/16 05:11:27;;;;;;;6.93;2.35;;;;;;;;;;5023343;28;20196;-70
2023/07/16 05:13:55;;;;;;;9.48;2.50;;;;;;;;;;5023257;28;20238;-69
2023/07/16 05:16:24;;;;;;;7.88;2.72;;;;;;;;;;5024934;28;20228;-71
2023/07/16 05:18:51;;;;;;;5.13;2.40;;;;;;;;;;5024130;28;20208;-70
2023/07/16 05:21:18;;;;;;;5.57;2.67;;;;;;;;;;5024679;28;20223;-69
2023/07/16 05:23:45;;;;;;;8.30;2.63;;;;;;;;;;5020505;28;20204;-69
2023/07/16 05:26:13;;;;;;;6.85;2.60;;;;;;;;;;5022128;28;20231;-69
2023/07/16 05:28:40;;;;;;;9.93;3.10;;;;;;;;;;5026430;28;20223;-67
2023/07/16 05:31:07;;;;;;;9.45;2.92;;;;;;;;;;5030791;28;20212;-69
2023/07/16 05:33:35;;;;;;;10.60;2.58;;;;;;;;;;5018560;28;20215;-67
2023/07/16 05:36:02;;;;;;;5.40;2.60;;;;;;;;;;5029523;28;20224;-69
2023/07/16 05:38:30;;;;;;;6.05;2.92;;;;;;;;;;5021975;28;20208;-67
2023/07/16 05:41:01;;;;;;;5.80;2.70;;;;;;;;;;5024067;28;20212;-69
2023/07/16 05:43:28;;;;;;;7.35;2.47;;;;;;;;;;5024269;28;20218;-67
2023/07/16 05:45:55;;;;;;;6.75;2.80;;;;;;;;;;5022382;28;20210;-70
2023/07/16 05:48:23;;;;;;;7.15;2.58;;;;;;;;;;5020966;28;20193;-66
2023/07/16 05:50:51;;;;;;;8.35;3.10;;;;;;;;;;5022554;28;20211;-67
2023/07/16 05:53:18;;;;;;;8.75;2.97;;;;;;;;;;5020521;28;20195;-67
2023/07/16 05:55:45;;;;;;;6.00;2.67;;;;;;;;;;5022347;28;20220;-68
2023/07/16 05:58:13;;;;;;;5.40;2.90;;;;;;;;;;5026533;28;20203;-68
2023/07/16 06:00:40;;;;;;;6.28;2.90;;;;;;;;;;5037212;28;20210;-67
2023/07/16 06:03:07;;;;;;;8.18;2.58;;;;;;;;;;5022448;28;20215;-66
2023/07/16 06:05:36;;;;;;;6.75;2.88;;;;;;;;;;5019396;28;20209;-66
2023/07/16 06:08:05;;;;;;;8.25;2.67;;;;;;;;;;5021354;28;20302;-69
2023/07/16 06:10:35;;;;;;;6.40;2.90;;;;;;;;;;5023887;28;20204;-67
2023/07/16 06:13:02;;;;;;;7.30;3.10;;;;;;;;;;5026730;28;20205;-68
2023/07/16 06:15:29;;;;;;;9.43;3.10;;;;;;;;;;5025375;28;20232;-67
2023/07/16 06:17:56;;;;;;;9.38;2.90;;;;;;;;;;5020471;28;20207;-68
2023/07/16 06:20:24;;;;;;;4.50;2.70;;;;;;;;;;5022055;28;20207;-68
2023/07/16 06:22:51;;;;;;;7.93;3.22;;;;;;;;;;5018678;28;20215;-68
2023/07/16 06:25:19;;;;;;;7.35;3.00;;;;;;;;;;5017150;28;20201;-66
2023/07/16 06:27:46;;;;;;;7.93;3.33;;;;;;;;;;5026433;28;20210;-68
2023/07/16 06:30:14;;;;;;;7.63;3.63;;;;;;;;;;5015319;28;20208;-69
2023/07/16 06:32:41;;;;;;;8.25;3.38;;;;;;;;;;5017934;28;20212;-69
2023/07/16 06:35:08;;;;;;;7.45;3.33;;;;;;;;;;5008569;28;20220;-66
2023/07/16 06:37:35;;;;;;;7.60;3.47;;;;;;;;;;5014353;28;20212;-66
2023/07/16 06:40:03;;;;;;;7.45;3.42;;;;;;;;;;5026549;28;20205;-67
2023/07/16 06:42:32;;;;;;;6.13;3.55;;;;;;;;;;5023215;28;20252;-68
2023/07/16 06:44:59;;;;;;;7.65;3.72;;;;;;;;;;5021829;28;20197;-66
2023/07/16 06:47:26;;;;;;;8.18;3.72;;;;;;;;;;5017668;28;20346;-67
2023/07/16 06:49:53;;;;;;;6.85;3.63;;;;;;;;;;5021190;28;20285;-68
2023/07/16 06:52:21;;;;;;;7.90;4.00;;;;;;;;;;5024665;28;20204;-68
2023/07/16 06:54:48;;;;;;;7.18;3.90;;;;;;;;;;5019643;28;20213;-66
2023/07/16 06:57:15;;;;;;;7.18;3.85;;;;;;;;;;5021923;28;20225;-67
2023/07/16 06:59:44;;;;;;;5.97;3.65;;;;;;;;;;5019777;28;20251;-70
2023/07/16 07:02:12;;;;;;;6.95;4.70;;;;;;;;;;5025497;28;20211;-68
2023/07/16 07:04:39;;;;;;;5.82;4.07;;;;;;;;;;5023345;28;20238;-69
2023/07/16 07:07:06;;;;;;;6.88;4.15;;;;;;;;;;5021609;28;20211;-70
2023/07/16 07:09:33;;;;;;;6.38;4.20;;;;;;;;;;5017694;28;20203;-69
2023/07/16 07:12:01;;;;;;;9.13;4.60;;;;;;;;;;5020579;28;20204;-67
2023/07/16 07:14:28;;;;;;;7.38;4.40;;;;;;;;;;5015403;28;20231;-69
2023/07/16 07:16:56;;;;;;;6.40;4.35;;;;;;;;;;5026242;28;20227;-70
2023/07/16 07:19:23;;;;;;;6.68;4.60;;;;;;;;;;5022055;28;20200;-71
2023/07/16 07:21:50;;;;;;;7.68;4.55;;;;;;;;;;5025847;28;20208;-69
2023/07/16 07:24:18;;;;;;;6.63;4.10;;;;;;;;;;5026019;28;20203;-71
2023/07/16 07:26:45;;;;;;;7.47;5.05;;;;;;;;;;5017349;28;20287;-70
2023/07/16 07:29:13;;;;;;;7.75;4.05;;;;;;;;;;5021796;28;20216;-71
2023/07/16 07:31:40;;;;;;;8.38;4.20;;;;;;;;;;5021594;28;20303;-70
2023/07/16 07:34:09;;;;;;;8.10;4.05;;;;;;;;;;5022592;28;20208;-71
2023/07/16 07:36:36;;;;;;;7.68;4.28;;;;;;;;;;5015784;28;20251;-71
2023/07/16 07:39:03;;;;;;;7.15;3.85;;;;;;;;;;5019383;28;20224;-70
2023/07/16 07:41:30;;;;;;;8.35;4.53;;;;;;;;;;5032101;28;20203;-71
2023/07/16 07:43:57;;;;;;;6.07;3.65;;;;;;;;;;5031643;28;20203;-70
2023/07/16 07:46:24;;;;;;;8.63;4.25;;;;;;;;;;5023336;28;20222;-70
2023/07/16 07:48:51;;;;;;;10.20;3.78;;;;;;;;;;5020490;28;20207;-69
2023/07/16 07:51:20;;;;;;;10.73;3.60;;;;;;;;;;5013067;28;20219;-71
2023/07/16 07:53:47;;;;;;;6.32;3.80;;;;;;;;;;5014356;28;20212;-70
2023/07/16 07:56:14;;;;;;;11.40;3.80;;;;;;;;;;5017358;28;20228;-71
2023/07/16 07:58:41;;;;;;;8.48;3.88;;;;;;;;;;5011350;28;20216;-70
2023/07/16 08:01:09;;;;;;;7.30;3.70;;;;;;;;;;5025950;28;20201;-71
2023/07/16 08:03:36;;;;;;;7.18;3.58;;;;;;;;;;5033123;28;20197;-69
2023/07/16 08:06:03;;;;;;;8.60;3.63;;;;;;;;;;5027692;28;20212;-69
2023/07/16 08:08:32;;;;;;;8.60;3.67;;;;;;;;;;5020790;28;20204;-71
2023/07/16 08:10:59;;;;;;;7.50;3.25;;;;;;;;;;5024309;28;20299;-71
2023/07/16 08:13:26;;;;;;;4.65;3.20;;;;;;;;;;5021133;28;20296;-69
2023/07/16 08:15:53;;;;;;;6.05;3.60;;;;;;;;;;5023128;28;20234;-70
2023/07/16 08:18:21;;;;;;;6.35;3.30;;;;;;;;;;5025931;28;20204;-71
2023/07/16 08:20:48;;;;;;;7.22;3.50;;;;;;;;;;5024028;28;20219;-71
2023/07/16 08:23:15;;;;;;;7.45;3.70;;;;;;;;;;5022900;28;20205;-71
2023/07/16 08:25:44;;;;;;;8.32;3.35;;;;;;;;;;5016966;28;20212;-71
2023/07/16 08:28:12;;;;;;;7.38;3.45;;;;;;;;;;5020494;28;20204;-71
2023/07/16 08:30:39;;;;;;;6.90;3.63;;;;;;;;;;5027099;28;20203;-71
2023/07/16 08:33:06;;;;;;;6.38;3.53;;;;;;;;;;5024570;28;20203;-72
2023/07/16 08:35:34;;;;;;;8.63;4.03;;;;;;;;;;5021344;28;20309;-72
2023/07/16 08:38:01;;;;;;;9.05;3.83;;;;;;;;;;5023937;28;20224;-73
2023/07/16 08:40:28;;;;;;;10.10;4.22;;;;;;;;;;5023242;28;20211;-73
2023/07/16 08:42:58;;;;;;;9.68;3.70;;;;;;;;;;5021509;28;20217;-72
2023/07/16 08:45:26;;;;;;;7.35;3.85;;;;;;;;;;5022429;28;20212;-73
2023/07/16 08:47:54;;;;;;;9.57;4.03;;;;;;;;;;5021284;28;20207;-74
2023/07/16 08:50:23;;;;;;;7.75;4.00;;;;;;;;;;5028149;28;20204;-72
2023/07/16 08:52:50;;;;;;;7.25;4.03;;;;;;;;;;5024073;28;20326;-72
2023/07/16 08:55:18;;;;;;;7.50;3.97;;;;;;;;;;5028344;28;20212;-72
2023/07/16 08:57:45;;;;;;;5.45;4.18;;;;;;;;;;5026503;28;20204;-72
2023/07/16 09:00:16;;;;;;;7.22;4.00;;;;;;;;;;5029382;28;20211;-73
2023/07/16 09:02:44;;;;;;;8.32;4.03;;;;;;;;;;5027026;28;20204;-72
2023/07/16 09:05:11;;;;;;;8.82;4.20;;;;;;;;;;5028283;28;20211;-72
2023/07/16 09:07:38;;;;;;;6.75;3.80;;;;;;;;;;5024994;28;20200;-73
2023/07/16 09:10:06;;;;;;;5.75;3.95;;;;;;;;;;5027452;28;20208;-74
2023/07/16 09:12:33;;;;;;;7.80;4.07;;;;;;;;;;5024528;28;20240;-73
2023/07/16 09:15:00;;;;;;;6.68;4.25;;;;;;;;;;5021453;28;20239;-74
2023/07/16 09:17:29;;;;;;;8.65;4.45;;;;;;;;;;5030392;28;20229;-73
2023/07/16 09:19:56;;;;;;;8.23;4.43;;;;;;;;;;5024401;28;20205;-72
2023/07/16 09:22:24;;;;;;;6.15;4.20;;;;;;;;;;5018746;28;20220;-72
2023/07/16 09:24:51;;;;;;;6.93;4.60;;;;;;;;;;5024285;28;20210;-69
2023/07/16 09:27:18;;;;;;;5.05;3.72;;;;;;;;;;5025415;28;20216;-70
2023/07/16 09:29:45;;;;;;;8.10;4.47;;;;;;;;;;5026714;28;20215;-68
2023/07/16 09:32:13;;;;;;;6.40;4.18;;;;;;;;;;5022724;28;20204;-70
2023/07/16 09:34:41;;;;;;;7.65;4.10;;;;;;;;;;5018664;28;20208;-71
2023/07/16 09:37:08;;;;;;;5.55;4.00;;;;;;;;;;5022429;28;20315;-71
2023/07/16 09:39:37;;;;;;;7.30;4.60;;;;;;;;;;5014230;28;20201;-67
2023/07/16 09:42:04;;;;;;;5.85;4.53;;;;;;;;;;5018421;28;20204;-68
2023/07/16 09:44:32;;;;;;;5.72;4.47;;;;;;;;;;5019198;28;20220;-67
2023/07/16 09:46:59;;;;;;;7.30;4.43;;;;;;;;;;5021078;28;20207;-69
2023/07/16 09:49:30;;;;;;;6.28;4.60;;;;;;;;;;5023102;28;20216;-68
2023/07/16 09:51:58;;;;;;;6.13;4.18;;;;;;;;;;5020021;28;20209;-69
2023/07/16 09:54:27;;;;;;;6.70;4.47;;;;;;;;;;5024325;28;20204;-69
2023/07/16 09:56:58;;;;;;;5.53;4.15;;;;;;;;;;5020551;28;20285;-67
2023/07/16 09:59:26;;;;;;;5.68;4.00;;;;;;;;;;5031063;28;20204;-68
2023/07/16 10:01:54;;;;;;;6.78;4.30;;;;;;;;;;5025565;28;20200;-68
2023/07/16 10:04:22;;;;;;;6.18;4.28;;;;;;;;;;5022548;28;20258;-69
2023/07/16 10:06:55;;;;;;;9.98;4.55;;;;;;;;;;5018443;28;20218;-69
2023/07/16 10:09:37;;;;;;;7.95;4.38;;;;;;;;;;5022651;28;20215;-69
2023/07/16 10:12:18;;;;;;;5.40;4.03;;;;;;;;;;5023181;28;20200;-71
2023/07/16 10:14:46;;;;;;;5.60;4.57;;;;;;;;;;5017803;28;20286;-68
2023/07/16 10:17:15;;;;;;;5.05;4.18;;;;;;;;;;5023316;28;20235;-69
2023/07/16 10:19:52;;;;;;;7.80;4.60;;;;;;;;;;5025747;28;20208;-69
2023/07/16 10:22:20;;;;;;;7.80;4.40;;;;;;;;;;5027431;28;20322;-67
2023/07/16 10:24:54;;;;;;;5.45;3.67;;;;;;;;;;5024159;28;20204;-68
2023/07/16 10:27:31;;;;;;;4.93;4.32;;;;;;;;;;5018448;28;20201;-69
2023/07/16 10:29:59;;;;;;;8.60;4.47;;;;;;;;;;5027027;28;20303;-68
2023/07/16 10:32:28;;;;;;;8.27;4.35;;;;;;;;;;5018247;28;20248;-68
2023/07/16 10:34:55;;;;;;;6.93;4.30;;;;;;;;;;5020318;28;20291;-68
2023/07/16 10:37:22;;;;;;;7.55;4.30;;;;;;;;;;5017952;28;20236;-69
2023/07/16 10:39:50;;;;;;;4.20;3.50;;;;;;;;;;5017611;28;20209;-67
2023/07/16 10:42:18;;;;;;;5.03;3.90;;;;;;;;;;5024579;28;20212;-69
2023/07/16 10:44:46;;;;;;;6.75;4.10;;;;;;;;;;5014930;28;20223;-69
2023/07/16 10:47:21;;;;;;;4.50;4.10;;;;;;;;;;5015259;28;20197;-68
2023/07/16 10:49:48;;;;;;;5.93;4.30;;;;;;;;;;5022884;28;20231;-69
2023/07/16 10:52:15;;;;;;;7.88;4.28;;;;;;;;;;5024142;28;20205;-68
2023/07/16 10:54:42;;;;;;;6.68;3.90;;;;;;;;;;5026621;28;20208;-67
2023/07/16 10:57:10;;;;;;;4.95;3.90;;;;;;;;;;5020859;28;20235;-70
2023/07/16 10:59:40;;;;;;;5.30;3.72;;;;;;;;;;5022103;28;20303;-67
2023/07/16 11:02:10;;;;;;;4.78;4.05;;;;;;;;;;5023703;28;20204;-69
2023/07/16 11:04:37;;;;;;;6.93;3.75;;;;;;;;;;5021974;28;20192;-72
2023/07/16 11:07:09;;;;;;;5.90;3.83;;;;;;;;;;5024720;28;20199;-67
2023/07/16 11:09:36;;;;;;;8.45;4.22;;;;;;;;;;5025769;28;20200;-70
2023/07/16 11:12:07;;;;;;;5.65;4.05;;;;;;;;;;5022796;28;20205;-70
2023/07/16 11:14:34;;;;;;;6.40;3.88;;;;;;;;;;5015993;28;20232;-71
2023/07/16 11:17:08;;;;;;;6.20;3.83;;;;;;;;;;5017250;28;20220;-69
2023/07/16 11:19:35;;;;;;;5.50;4.00;;;;;;;;;;5017227;28;20207;-70
2023/07/16 11:22:02;;;;;;;5.30;3.70;;;;;;;;;;5022983;28;20205;-72
2023/07/16 11:24:29;;;;;;;4.47;3.80;;;;;;;;;;5021427;28;20452;-70
2023/07/16 11:26:57;;;;;;;6.03;3.63;;;;;;;;;;5023526;28;20204;-70
2023/07/16 11:29:25;;;;;;;4.93;3.70;;;;;;;;;;5019047;28;20208;-68
2023/07/16 11:31:52;;;;;;;7.97;6.10;;;;;;;;;;5016502;28;20299;-68
2023/07/16 11:34:22;;;;;;;7.00;4.28;;;;;;;;;;5012159;28;20211;-71
2023/07/16 11:36:56;;;;;;;5.95;4.03;;;;;;;;;;5013605;28;20234;-70
2023/07/16 11:39:26;;;;;;;6.20;3.45;;;;;;;;;;5008237;28;20208;-71
2023/07/16 11:41:59;;;;;;;5.82;3.42;;;;;;;;;;5015376;28;20216;-71
2023/07/16 11:44:26;;;;;;;4.88;3.65;;;;;;;;;;5029134;28;20197;-75
2023/07/16 11:46:53;;;;;;;4.40;3.30;;;;;;;;;;5024119;28;20203;-76
2023/07/16 11:49:20;;;;;;;4.47;3.15;;;;;;;;;;5025354;28;20260;-77
2023/07/16 11:51:49;;;;;;;7.15;3.25;;;;;;;;;;5017590;28;20201;-75
2023/07/16 11:54:16;;;;;;;5.65;3.40;;;;;;;;;;5023371;28;20200;-74
2023/07/16 11:56:43;;;;;;;5.32;3.60;;;;;;;;;;5027488;28;20224;-76
2023/07/16 11:59:10;;;;;;;5.40;3.63;;;;;;;;;;5022305;28;20215;-75
2023/07/16 12:01:37;;;;;;;4.97;3.40;;;;;;;;;;5028509;28;20197;-77
2023/07/16 12:04:05;;;;;;;4.95;3.38;;;;;;;;;;5025066;28;20218;-74
2023/07/16 12:06:32;;;;;;;5.10;3.30;;;;;;;;;;5024480;28;20219;-75
2023/07/16 12:09:00;;;;;;;4.32;3.20;;;;;;;;;;5025327;28;20211;-75
2023/07/16 12:11:27;;;;;;;5.53;3.40;;;;;;;;;;5022543;28;20201;-75
2023/07/16 12:13:55;;;;;;;4.65;3.03;;;;;;;;;;5020132;28;20247;-75
2023/07/16 12:16:22;;;;;;;5.03;3.53;;;;;;;;;;5029600;28;20203;-75
2023/07/16 12:18:49;;;;;;;4.95;3.25;;;;;;;;;;5025905;28;20221;-77
2023/07/16 12:21:16;;;;;;;5.68;3.50;;;;;;;;;;5019877;28;20207;-77
2023/07/16 12:23:43;;;;;;;3.92;3.15;;;;;;;;;;5020898;28;20209;-77
2023/07/16 12:26:12;;;;;;;4.85;3.50;;;;;;;;;;5022271;28;20242;-77
2023/07/16 12:28:39;;;;;;;5.82;3.63;;;;;;;;;;5023023;28;20290;-76
2023/07/16 12:31:06;;;;;;;5.47;3.80;;;;;;;;;;5017626;28;20212;-77
2023/07/16 12:33:33;;;;;;;4.88;3.22;;;;;;;;;;5018492;28;20204;-77
2023/07/16 12:36:00;;;;;;;4.65;3.42;;;;;;;;;;5023229;28;20299;-77
2023/07/16 12:38:28;;;;;;;3.78;3.30;;;;;;;;;;5031927;28;20224;-76
2023/07/16 12:40:55;;;;;;;5.07;3.40;;;;;;;;;;5023874;28;20215;-77
2023/07/16 12:43:23;;;;;;;4.78;3.17;;;;;;;;;;5024583;28;20232;-77
2023/07/16 12:45:50;;;;;;;3.58;3.00;;;;;;;;;;5020778;28;20204;-73
2023/07/16 12:48:17;;;;;;;5.30;3.42;;;;;;;;;;5024254;28;20207;-74
2023/07/16 12:50:45;;;;;;;4.70;3.35;;;;;;;;;;5035512;28;20200;-73
2023/07/16 12:53:12;;;;;;;3.70;2.95;;;;;;;;;;5028087;28;20299;-74
2023/07/16 12:55:40;;;;;;;5.50;3.30;;;;;;;;;;5017155;28;20201;-77
2023/07/16 12:58:07;;;;;;;8.38;3.47;;;;;;;;;;5023028;28;20227;-78
2023/07/16 13:00:36;;;;;;;4.35;3.20;;;;;;;;;;5022839;28;20204;-73
2023/07/16 13:03:04;;;;;;;5.50;3.45;;;;;;;;;;5023212;28;20204;-72
2023/07/16 13:05:31;;;;;;;7.28;3.22;;;;;;;;;;5020194;28;20209;-74
2023/07/16 13:08:01;;;;;;;4.47;3.20;;;;;;;;;;5024407;28;20220;-73
2023/07/16 13:10:28;;;;;;;5.75;3.20;;;;;;;;;;5021140;28;20201;-75
2023/07/16 13:12:55;;;;;;;3.83;3.17;;;;;;;;;;5021348;28;20295;-74
2023/07/16 13:15:22;;;;;;;5.85;3.60;;;;;;;;;;5020558;28;20264;-73
2023/07/16 13:17:51;;;;;;;5.63;3.35;;;;;;;;;;5028541;28;20242;-74
2023/07/16 13:20:20;;;;;;;4.05;2.95;;;;;;;;;;5022962;28;20211;-76
2023/07/16 13:22:47;;;;;;;4.85;3.33;;;;;;;;;;5018572;28;20205;-75
2023/07/16 13:25:14;;;;;;;5.57;3.25;;;;;;;;;;5025733;28;20196;-77
2023/07/16 13:27:41;;;;;;;6.00;3.35;;;;;;;;;;5027839;28;20291;-75
2023/07/16 13:30:08;;;;;;;4.13;3.20;;;;;;;;;;5017607;28;20211;-75
2023/07/16 13:32:36;;;;;;;5.13;3.08;;;;;;;;;;5024566;28;20203;-77
2023/07/16 13:35:05;;;;;;;3.95;3.47;;;;;;;;;;5027240;28;20204;-75
2023/07/16 13:37:32;;;;;;;4.05;3.33;;;;;;;;;;5020144;28;20224;-73
2023/07/16 13:39:59;;;;;;;4.40;3.17;;;;;;;;;;5025399;28;20204;-77
2023/07/16 13:42:26;;;;;;;3.85;3.33;;;;;;;;;;5022409;28;20208;-76
2023/07/16 13:44:54;;;;;;;5.55;3.42;;;;;;;;;;5028553;28;20215;-73
2023/07/16 13:47:21;;;;;;;6.07;3.83;;;;;;;;;;5020797;28;20233;-73
2023/07/16 13:49:49;;;;;;;8.65;3.75;;;;;;;;;;5030151;28;20261;-73
2023/07/16 13:52:18;;;;;;;4.85;3.60;;;;;;;;;;5020558;28;20204;-73
2023/07/16 13:54:45;;;;;;;5.72;3.25;;;;;;;;;;5020578;28;20271;-73
2023/07/16 13:57:15;;;;;;;4.70;3.63;;;;;;;;;;5013849;28;20266;-73
2023/07/16 13:59:43;;;;;;;5.25;3.38;;;;;;;;;;5021893;28;20218;-74
2023/07/16 14:02:10;;;;;;;4.95;3.20;;;;;;;;;;5018486;28;20211;-73
2023/07/16 14:04:37;;;;;;;4.57;3.50;;;;;;;;;;5024017;28;20207;-74
2023/07/16 14:07:05;;;;;;;6.57;4.15;;;;;;;;;;5018732;28;20227;-73
2023/07/16 14:09:34;;;;;;;6.10;3.58;;;;;;;;;;5016476;28;20236;-74
2023/07/16 14:12:01;;;;;;;5.13;3.42;;;;;;;;;;5015218;28;20211;-74
2023/07/16 14:14:29;;;;;;;7.70;3.60;;;;;;;;;;5020361;28;20239;-73
2023/07/16 14:16:57;;;;;;;5.75;3.67;;;;;;;;;;5024567;28;20205;-72
2023/07/16 14:19:24;;;;;;;4.75;3.65;;;;;;;;;;5013915;28;20278;-73
2023/07/16 14:21:51;;;;;;;5.78;4.00;;;;;;;;;;5020584;28;20209;-73
2023/07/16 14:24:20;;;;;;;7.55;3.60;;;;;;;;;;5041804;28;20291;-73
2023/07/16 14:26:50;;;;;;;6.40;3.90;;;;;;;;;;5027528;28;20203;-74
2023/07/16 14:29:17;;;;;;;7.72;6.35;;;;;;;;;;5026867;28;20286;-74
2023/07/16 14:31:45;;;;;;;17.92;10.32;;;;;;;;;;5026839;28;20209;-73
2023/07/16 14:34:12;;;;;;;23.13;18.35;;;;;;;;;;5018065;28;20231;-73
2023/07/16 14:36:45;;;;;;;33.08;29.77;;;;;;;;;;5020826;28;20196;-74
2023/07/16 14:39:13;;;;;;;19.33;17.42;;;;;;;;;;5022707;28;20228;-74
2023/07/16 14:41:40;;;;;;;9.73;8.68;;;;;;;;;;5021588;28;20200;-75
2023/07/16 14:44:09;;;;;;;6.55;5.03;;;;;;;;;;5017264;28;20240;-74
2023/07/16 14:46:37;;;;;;;9.40;8.50;;;;;;;;;;5019196;28;20223;-74